Time;durP1;ratioP1;P1;durP2;ratioP2;P2;SDS_P1;SDS_P2;PMS_P1;PMS_P2;Temp;Humidity;BMP_temperature;BMP_pressure;BME280_temperature;BME280_humidity;BME280_pressure;Samples;Min_cycle;Max_cycle;Signal;HPM_P1;HPM_P2
2022/09/19 07:29:35;;;;;;;;;;;;;;;9.99;100.00;100094.38;5240577;23;19930;-85
2022/09/19 07:32:01;;;;;;;;;;;;;;;10.02;100.00;100092.53;5008074;28;19922;-86
2022/09/19 07:34:26;;;;;;;;;;;;;;;10.04;100.00;100082.78;4983769;28;19921;-87
2022/09/19 07:36:52;;;;;;;;;;;;;;;9.98;100.00;100082.06;4984641;28;19922;-89
2022/09/19 07:39:17;;;;;;;;;;;;;;;10.06;100.00;100084.44;4983327;28;20377;-92
2022/09/19 07:41:43;;;;;;;;;;;;;;;10.03;100.00;100094.28;4983414;28;19918;-85
2022/09/19 07:44:08;;;;;;;;;;;;;;;10.00;100.00;100101.41;4983311;28;19918;-87
2022/09/19 07:46:33;;;;;;;;;;;;;;;10.06;100.00;100099.47;4984456;28;19922;-86
2022/09/19 07:48:58;;;;;;;;;;;;;;;10.03;100.00;100097.78;4984217;28;19919;-86
2022/09/19 07:51:25;;;;;;;;;;;;;;;10.06;100.00;100095.03;4984643;28;19918;-87
2022/09/19 07:53:50;;;;;;;;;;;;;;;10.06;100.00;100094.16;4984473;28;19922;-87
2022/09/19 07:56:16;;;;;;;;;;;;;;;10.08;100.00;100097.63;4982761;28;19980;-90
2022/09/19 07:58:46;;;;;;;;;;;;;;;10.07;100.00;100095.88;4981304;28;19922;-87
2022/09/19 08:01:12;;;;;;;;;;;;;;;10.06;100.00;100102.13;4983604;28;20063;-87
2022/09/19 08:03:40;;;;;;;;;;;;;;;10.02;100.00;100109.31;4983266;28;20016;-89
2022/09/19 08:06:05;;;;;;;;;;;;;;;10.06;100.00;100110.06;4985281;28;19925;-87
2022/09/19 08:08:30;;;;;;;;;;;;;;;10.04;100.00;100107.47;4983183;28;19925;-87
2022/09/19 08:11:02;;;;;;;;;;;;;;;10.08;100.00;100113.50;4983887;28;19961;-87
2022/09/19 08:13:29;;;;;;;;;;;;;;;10.05;100.00;100105.66;4981349;28;20384;-90
2022/09/19 08:15:54;;;;;;;;;;;;;;;10.05;100.00;100111.84;4984464;28;20365;-87
2022/09/19 08:18:23;;;;;;;;;;;;;;;10.09;100.00;100112.59;4982346;28;19985;-90
2022/09/19 08:20:48;;;;;;;;;;;;;;;10.10;100.00;100114.31;5005554;28;20427;-89
2022/09/19 08:23:16;;;;;;;;;;;;;;;10.15;100.00;100115.03;4984632;28;19926;-89
2022/09/19 08:25:46;;;;;;;;;;;;;;;10.09;100.00;100123.19;4985128;28;19914;-88
2022/09/19 08:28:11;;;;;;;;;;;;;;;10.18;100.00;100120.22;4981527;28;19922;-88
2022/09/19 08:30:47;;;;;;;;;;;;;;;;;;;;;
2022/09/19 08:33:12;;;;;;;;;;;;;;;10.12;100.00;100125.72;4983164;28;19924;-88
2022/09/19 08:35:39;;;;;;;;;;;;;;;10.09;100.00;100131.13;4982604;28;20017;-88
2022/09/19 08:38:05;;;;;;;;;;;;;;;10.26;100.00;100131.41;5003721;28;19929;-87
2022/09/19 08:40:35;;;;;;;;;;;;;;;10.27;100.00;100133.09;4983303;28;20355;-89
2022/09/19 08:43:22;;;;;;;;;;;;;;;10.18;100.00;100136.97;4982314;28;19932;-87
2022/09/19 08:45:50;;;;;;;;;;;;;;;10.31;100.00;100137.38;5006633;28;19918;-89
2022/09/19 08:48:39;;;;;;;;;;;;;;;10.14;100.00;100140.63;4981482;28;19922;-90
2022/09/19 08:51:09;;;;;;;;;;;;;;;10.29;100.00;100144.53;4982505;28;20340;-88
2022/09/19 08:53:47;;;;;;;;;;;;;;;10.22;100.00;100142.16;4983106;28;19949;-90
2022/09/19 08:56:13;;;;;;;;;;;;;;;10.22;100.00;100145.66;4981446;28;19921;-88
2022/09/19 08:58:45;;;;;;;;;;;;;;;10.15;100.00;100145.00;4979913;28;19922;-89
2022/09/19 09:01:15;;;;;;;;;;;;;;;10.11;100.00;100147.81;4980593;28;20016;-88
2022/09/19 09:04:02;;;;;;;;;;;;;;;10.22;100.00;100143.00;4984751;28;20377;-90
2022/09/19 09:06:29;;;;;;;;;;;;;;;10.17;100.00;100139.66;5005120;28;20366;-89
2022/09/19 09:09:05;;;;;;;;;;;;;;;10.18;100.00;100144.91;4983156;28;19922;-88
2022/09/19 09:11:30;;;;;;;;;;;;;;;10.24;100.00;100145.59;4981658;28;20090;-91
2022/09/19 09:14:14;;;;;;;;;;;;;;;10.16;100.00;100144.09;4980834;28;19922;-91
2022/09/19 09:16:42;;;;;;;;;;;;;;;10.26;100.00;100144.63;4981491;28;19926;-90
2022/09/19 09:19:22;;;;;;;;;;;;;;;10.35;100.00;100143.47;4982386;28;19932;-91
2022/09/19 09:21:59;;;;;;;;;;;;;;;10.39;100.00;100149.50;4980991;28;19965;-89
2022/09/19 09:24:28;;;;;;;;;;;;;;;10.35;100.00;100144.34;4982849;28;19984;-89
2022/09/19 09:26:57;;;;;;;;;;;;;;;10.33;100.00;100143.50;5006046;28;20372;-88
2022/09/19 09:29:42;;;;;;;;;;;;;;;10.32;100.00;100148.84;4980974;28;19972;-91
2022/09/19 09:32:15;;;;;;;;;;;;;;;10.24;100.00;100141.16;4982016;28;20004;-90
2022/09/19 09:34:43;;;;;;;;;;;;;;;10.29;100.00;100146.28;4981844;28;19922;-92
2022/09/19 09:37:19;;;;;;;;;;;;;;;10.23;100.00;100134.16;4980998;28;20404;-90
2022/09/19 09:41:44;;;;;;;;;;;;;;;10.26;100.00;100136.69;4982315;28;19925;-87
2022/09/19 09:42:43;;;;;;;;;;;;;;;10.31;100.00;100131.22;4980225;28;20312;-90
2022/09/19 09:45:20;;;;;;;;;;;;;;;10.24;100.00;100138.50;4981100;28;19925;-90
2022/09/19 09:47:55;;;;;;;;;;;;;;;10.21;100.00;100130.69;4987269;28;19926;-86
2022/09/19 09:50:28;;;;;;;;;;;;;;;10.23;100.00;100131.50;5009950;28;19925;-88
2022/09/19 09:53:19;;;;;;;;;;;;;;;10.28;100.00;100132.19;5008407;28;19926;-88
2022/09/19 09:56:15;;;;;;;;;;;;;;;10.25;100.00;100132.31;4984293;28;19928;-90
2022/09/19 09:58:49;;;;;;;;;;;;;;;10.31;100.00;100129.44;4984607;28;19929;-88
2022/09/19 10:04:03;;;;;;;;;;;;;;;10.28;100.00;100136.63;4987441;28;20487;-90
2022/09/19 10:06:30;;;;;;;;;;;;;;;10.34;100.00;100131.16;5010325;28;20345;-93
2022/09/19 10:09:07;;;;;;;;;;;;;;;10.32;100.00;100131.22;4984728;28;19968;-90
2022/09/19 10:11:45;;;;;;;;;;;;;;;10.26;100.00;100133.16;5009136;28;20380;-92
2022/09/19 10:14:20;;;;;;;;;;;;;;;10.29;100.00;100131.28;5007830;28;19922;-90
2022/09/19 10:16:47;;;;;;;;;;;;;;;10.30;100.00;100121.53;5008201;28;19918;-86
2022/09/19 10:19:12;;;;;;;;;;;;;;;10.40;100.00;100120.31;4985533;28;19929;-86
2022/09/19 10:21:38;;;;;;;;;;;;;;;10.33;100.00;100126.75;5006851;28;19922;-89
2022/09/19 10:24:23;;;;;;;;;;;;;;;10.30;100.00;100125.03;4984661;28;20065;-87
2022/09/19 10:26:49;;;;;;;;;;;;;;;10.39;100.00;100117.72;4984864;28;19922;-86
2022/09/19 10:29:21;;;;;;;;;;;;;;;10.42;100.00;100115.84;4984683;28;19926;-90
2022/09/19 10:31:47;;;;;;;;;;;;;;;10.40;100.00;100115.00;4985481;28;19925;-88
2022/09/19 10:34:30;;;;;;;;;;;;;;;10.47;100.00;100116.53;4985223;28;19914;-87
2022/09/19 10:36:59;;;;;;;;;;;;;;;10.45;100.00;100117.50;4982899;28;20389;-90
2022/09/19 10:39:25;;;;;;;;;;;;;;;10.39;100.00;100118.59;4982193;28;20352;-87
2022/09/19 10:41:50;;;;;;;;;;;;;;;10.46;100.00;100113.94;4983287;28;19965;-86
2022/09/19 10:44:18;;;;;;;;;;;;;;;10.47;100.00;100110.38;5008412;28;19921;-87
2022/09/19 10:46:45;;;;;;;;;;;;;;;10.53;100.00;100110.16;5007125;28;20328;-90
2022/09/19 10:49:22;;;;;;;;;;;;;;;10.41;100.00;100114.09;4983150;28;19929;-88
2022/09/19 10:51:57;;;;;;;;;;;;;;;10.36;100.00;100105.47;4985352;28;19922;-89
2022/09/19 10:54:38;;;;;;;;;;;;;;;10.44;100.00;100114.00;5007599;28;19926;-88
2022/09/19 10:57:04;;;;;;;;;;;;;;;10.42;100.00;100118.50;4983637;28;19923;-87
2022/09/19 10:59:39;;;;;;;;;;;;;;;10.33;100.00;100111.72;5006205;28;19969;-89
2022/09/19 11:02:07;;;;;;;;;;;;;;;10.47;100.00;100110.38;5009352;28;19922;-88
2022/09/19 11:04:35;;;;;;;;;;;;;;;10.40;100.00;100114.16;5007434;28;20012;-86
2022/09/19 11:07:02;;;;;;;;;;;;;;;10.40;100.00;100109.72;4984531;28;19957;-90
2022/09/19 11:09:33;;;;;;;;;;;;;;;10.41;100.00;100115.91;4983052;28;19922;-90
2022/09/19 11:12:05;;;;;;;;;;;;;;;10.39;100.00;100112.41;4983939;28;19922;-86
2022/09/19 11:14:37;;;;;;;;;;;;;;;10.36;100.00;100118.72;4982727;28;19928;-87
2022/09/19 11:17:18;;;;;;;;;;;;;;;10.40;100.00;100114.16;4989283;28;19923;-90
2022/09/19 11:19:49;;;;;;;;;;;;;;;10.40;100.00;100109.72;4986205;28;20408;-86
2022/09/19 11:22:33;;;;;;;;;;;;;;;10.40;100.00;100119.44;4985234;28;19970;-88
2022/09/19 11:25:02;;;;;;;;;;;;;;;10.41;100.00;100121.19;4986237;28;20012;-91
2022/09/19 11:27:37;;;;;;;;;;;;;;;10.47;100.00;100110.38;4983783;28;19944;-91
2022/09/19 11:30:11;;;;;;;;;;;;;;;10.39;100.00;100118.59;4982308;28;19926;-88
2022/09/19 11:32:56;;;;;;;;;;;;;;;10.43;100.00;100119.34;5007958;28;19922;-92
2022/09/19 11:35:27;;;;;;;;;;;;;;;10.42;100.00;100118.50;4988015;28;19945;-86
2022/09/19 11:38:06;;;;;;;;;;;;;;;10.33;100.00;100117.03;4983613;28;19926;-89
2022/09/19 11:40:50;;;;;;;;;;;;;;;10.42;100.00;100117.59;4982841;28;19918;-87
2022/09/19 11:43:28;;;;;;;;;;;;;;;10.41;100.00;100115.91;5006117;28;19921;-90
2022/09/19 11:45:56;;;;;;;;;;;;;;;10.37;100.00;100107.22;4981028;28;19969;-88
2022/09/19 11:48:34;;;;;;;;;;;;;;;10.47;100.00;100115.66;4984246;28;19961;-91
2022/09/19 11:51:15;;;;;;;;;;;;;;;10.45;100.00;100117.50;4984181;28;20008;-87
2022/09/19 11:53:43;;;;;;;;;;;;;;;10.48;100.00;100112.97;5009038;28;20337;-85
2022/09/19 11:56:12;;;;;;;;;;;;;;;10.55;100.00;100116.25;4983698;28;19922;-91
2022/09/19 11:58:55;;;;;;;;;;;;;;;10.43;100.00;100103.44;4981076;28;19981;-86
2022/09/19 12:01:21;;;;;;;;;;;;;;;10.48;100.00;100106.78;4983680;28;19922;-92
2022/09/19 12:04:05;;;;;;;;;;;;;;;10.51;100.00;100101.38;5006762;28;19928;-91
2022/09/19 12:06:34;;;;;;;;;;;;;;;10.56;100.00;100104.69;5006405;28;19918;-87
2022/09/19 12:09:09;;;;;;;;;;;;;;;10.41;100.00;100100.00;4982044;28;19922;-92
2022/09/19 12:11:42;;;;;;;;;;;;;;;10.39;100.00;100092.09;4982009;28;19932;-90
2022/09/19 12:14:15;;;;;;;;;;;;;;;10.40;100.00;100096.47;4985330;28;19921;-91
2022/09/19 12:16:52;;;;;;;;;;;;;;;10.44;100.00;100097.25;4982111;28;20420;-91
2022/09/19 12:19:21;;;;;;;;;;;;;;;10.51;100.00;100096.06;4982967;28;19929;-88
2022/09/19 12:21:51;;;;;;;;;;;;;;;10.53;100.00;100083.66;4985686;28;19925;-90
2022/09/19 12:27:13;;;;;;;;;;;;;;;10.51;100.00;100088.13;4983568;28;20024;-86
2022/09/19 12:29:46;;;;;;;;;;;;;;;10.41;100.00;100078.81;4984116;28;19933;-93
2022/09/19 12:32:23;;;;;;;;;;;;;;;10.45;100.00;100086.59;4984020;28;20024;-86
2022/09/19 12:35:09;;;;;;;;;;;;;;;10.36;100.00;100074.53;4981447;28;20577;-93
2022/09/19 12:37:44;;;;;;;;;;;;;;;10.45;100.00;100080.41;4985781;28;20395;-89
2022/09/19 12:40:10;;;;;;;;;;;;;;;10.44;100.00;100081.34;4985254;28;19948;-91
2022/09/19 12:42:44;;;;;;;;;;;;;;;10.40;100.00;100082.38;4982914;28;20309;-89
2022/09/19 12:45:21;;;;;;;;;;;;;;;10.45;100.00;100075.09;4984129;28;19992;-92
2022/09/19 12:47:55;;;;;;;;;;;;;;;10.41;100.00;100073.50;5005703;28;19917;-91
2022/09/19 12:50:42;;;;;;;;;;;;;;;10.42;100.00;100070.81;5006074;28;20385;-91
2022/09/19 12:53:20;;;;;;;;;;;;;;;10.45;100.00;100075.09;4983442;28;20294;-86
2022/09/19 12:55:56;;;;;;;;;;;;;;;10.48;100.00;100075.00;4999120;28;19929;-89
2022/09/19 12:58:32;;;;;;;;;;;;;;;10.50;100.00;100066.06;5005788;28;19917;-90
2022/09/19 13:01:08;;;;;;;;;;;;;;;10.52;100.00;100068.66;4983693;28;20038;-90
2022/09/19 13:03:35;;;;;;;;;;;;;;;10.52;100.00;100069.53;4980065;28;20312;-88
2022/09/19 13:06:11;;;;;;;;;;;;;;;10.41;100.00;100065.56;4981096;28;19922;-92
2022/09/19 13:08:40;;;;;;;;;;;;;;;10.53;100.00;100065.09;5006730;28;19922;-88
2022/09/19 13:11:05;;;;;;;;;;;;;;;10.55;100.00;100076.50;4980577;28;19924;-92
2022/09/19 13:13:35;;;;;;;;;;;;;;;10.47;100.00;100068.84;4981846;28;19918;-85
2022/09/19 13:16:08;;;;;;;;;;;;;;;10.49;100.00;100068.78;4983587;28;19922;-86
2022/09/19 13:24:24;;;;;;;;;;;;;;;10.58;100.00;100060.50;4983295;28;19981;-93
2022/09/19 13:26:53;;;;;;;;;;;;;;;10.60;100.00;100061.28;4982258;28;19928;-90
2022/09/19 13:29:18;;;;;;;;;;;;;;;10.58;100.00;100057.84;4980871;28;19951;-93
2022/09/19 13:31:55;;;;;;;;;;;;;;;10.59;100.00;100061.34;5004800;28;20726;-85
2022/09/19 13:34:42;;;;;;;;;;;;;;;10.60;100.00;100068.38;4984173;28;20677;-89
2022/09/19 13:37:26;;;;;;;;;;;;;;;10.53;100.00;100065.09;4983700;28;20001;-90
2022/09/19 13:40:16;;;;;;;;;;;;;;;10.53;100.00;100059.81;4983333;28;19957;-89
2022/09/19 13:42:41;;;;;;;;;;;;;;;10.59;100.00;100059.53;4983158;28;19922;-87
2022/09/19 13:45:21;;;;;;;;;;;;;;;10.45;100.00;100054.78;4982434;28;19969;-90
2022/09/19 13:47:48;;;;;;;;;;;;;;;10.52;100.00;100055.41;4981391;28;19926;-88
2022/09/19 13:50:39;;;;;;;;;;;;;;;10.51;100.00;100049.28;4983064;28;19918;-89
2022/09/19 13:53:06;;;;;;;;;;;;;;;10.57;100.00;100057.91;5005717;28;20387;-89
2022/09/19 13:55:32;;;;;;;;;;;;;;;10.56;100.00;100059.66;4981705;28;19922;-91
2022/09/19 13:58:16;;;;;;;;;;;;;;;10.52;100.00;100050.13;4980005;28;19933;-90
2022/09/19 14:00:43;;;;;;;;;;;;;;;10.56;100.00;100045.56;4983373;28;19922;-92
2022/09/19 14:03:21;;;;;;;;;;;;;;;10.56;100.00;100048.22;4984792;28;19918;-95
2022/09/19 14:05:47;;;;;;;;;;;;;;;10.53;100.00;100051.88;4983089;28;19961;-89
2022/09/19 14:08:34;;;;;;;;;;;;;;;10.45;100.00;100045.97;5003194;28;19965;-89
2022/09/19 14:11:00;;;;;;;;;;;;;;;10.56;100.00;100042.91;4979875;28;19922;-91
2022/09/19 14:13:32;;;;;;;;;;;;;;;10.56;100.00;100038.47;4983582;28;20457;-92
2022/09/19 14:16:02;;;;;;;;;;;;;;;10.53;100.00;100041.25;4986349;28;19922;-90
2022/09/19 14:18:36;;;;;;;;;;;;;;;10.57;100.00;100042.84;4982231;28;20284;-90
2022/09/19 14:21:08;;;;;;;;;;;;;;;10.60;100.00;100042.72;4982546;28;20353;-90
2022/09/19 14:23:38;;;;;;;;;;;;;;;10.62;100.00;100040.03;4979687;28;19962;-89
2022/09/19 14:26:06;;;;;;;;;;;;;;;10.56;100.00;100034.97;4973597;28;20527;-95
2022/09/19 14:28:32;;;;;;;;;;;;;;;10.50;100.00;100036.06;4971516;28;19918;-91
2022/09/19 14:30:57;;;;;;;;;;;;;;;10.53;100.00;100035.97;4971077;28;20833;-88
2022/09/19 14:33:34;;;;;;;;;;;;;;;10.51;100.00;100036.03;4974766;28;20010;-86
2022/09/19 14:36:09;;;;;;;;;;;;;;;10.52;100.00;100047.47;4990086;28;19926;-89
2022/09/19 14:38:52;;;;;;;;;;;;;;;10.52;100.00;100047.47;4981212;28;19969;-90
2022/09/19 14:41:18;;;;;;;;;;;;;;;10.54;100.00;100048.25;4973540;28;19926;-91
2022/09/19 14:43:54;;;;;;;;;;;;;;;10.52;100.00;100050.97;4971785;28;19922;-89
2022/09/19 14:46:22;;;;;;;;;;;;;;;10.54;100.00;100053.56;4975116;28;20013;-92
2022/09/19 14:48:54;;;;;;;;;;;;;;;10.53;100.00;100055.38;4989719;28;19922;-87
2022/09/19 14:51:46;;;;;;;;;;;;;;;10.57;100.00;100042.84;4987255;28;19926;-90
2022/09/19 14:54:22;;;;;;;;;;;;;;;10.55;100.00;100052.66;4950615;28;20618;-88
2022/09/19 14:56:56;;;;;;;;;;;;;;;10.56;100.00;100037.59;4975277;28;20293;-88
2022/09/19 14:59:22;;;;;;;;;;;;;;;10.58;100.00;100041.94;4970336;28;20373;-89
2022/09/19 15:01:48;;;;;;;;;;;;;;;10.54;100.00;100030.56;4973124;28;19922;-90
2022/09/19 15:04:19;;;;;;;;;;;;;;;10.62;100.00;100027.63;4969848;28;19923;-86
2022/09/19 15:06:49;;;;;;;;;;;;;;;10.59;100.00;100027.75;4961657;28;20032;-90
2022/09/19 15:09:20;;;;;;;;;;;;;;;10.52;100.00;100024.47;4971066;28;20155;-91
2022/09/19 15:11:47;;;;;;;;;;;;;;;10.51;100.00;100021.88;4973248;28;19929;-89
2022/09/19 15:14:15;;;;;;;;;;;;;;;10.66;100.00;100023.94;4972760;28;20021;-90
2022/09/19 15:16:40;;;;;;;;;;;;;;;10.58;100.00;100017.22;4973097;28;19926;-92
2022/09/19 15:19:08;;;;;;;;;;;;;;;10.60;100.00;100026.84;4972955;28;20400;-90
2022/09/19 15:21:35;;;;;;;;;;;;;;;10.69;100.00;100022.94;4974346;28;19932;-91
2022/09/19 15:24:02;;;;;;;;;;;;;;;10.70;100.00;100029.97;4971946;28;19934;-90
2022/09/19 15:26:30;;;;;;;;;;;;;;;10.61;100.00;100028.56;4973572;28;19970;-93
2022/09/19 15:28:57;;;;;;;;;;;;;;;10.68;100.00;100021.25;4972232;28;19922;-90
2022/09/19 15:31:24;;;;;;;;;;;;;;;10.66;100.00;100018.66;4973801;28;20373;-91
2022/09/19 15:34:10;;;;;;;;;;;;;;;10.62;100.00;100019.69;4974182;28;19918;-90
2022/09/19 15:36:36;;;;;;;;;;;;;;;10.68;100.00;100018.59;4974151;28;19918;-90
2022/09/19 15:39:06;;;;;;;;;;;;;;;10.59;100.00;100017.16;4973827;28;20408;-88
2022/09/19 15:41:32;;;;;;;;;;;;;;;10.57;100.00;100032.25;4974470;28;19918;-92
2022/09/19 15:44:00;;;;;;;;;;;;;;;10.63;100.00;100017.91;4986621;28;19926;-92
2022/09/19 15:46:28;;;;;;;;;;;;;;;10.61;100.00;100014.44;4971931;28;20091;-88
2022/09/19 15:48:57;;;;;;;;;;;;;;;10.54;100.00;100025.28;4972962;28;19922;-89
2022/09/19 15:51:32;;;;;;;;;;;;;;;10.64;100.00;100022.28;4984847;28;19977;-87
2022/09/19 15:53:58;;;;;;;;;;;;;;;10.63;100.00;100025.88;4970873;28;19918;-91
2022/09/19 15:56:24;;;;;;;;;;;;;;;10.57;100.00;100018.16;4973529;28;19926;-91
2022/09/19 15:58:58;;;;;;;;;;;;;;;10.61;100.00;100023.28;4972646;28;20333;-92
2022/09/19 16:01:34;;;;;;;;;;;;;;;10.63;100.00;100026.72;4989015;28;19922;-90
2022/09/19 16:04:10;;;;;;;;;;;;;;;10.70;100.00;100024.69;4988405;28;19923;-90
2022/09/19 16:09:51;;;;;;;;;;;;;;;10.69;100.00;100020.28;4973759;28;19925;-91
2022/09/19 16:12:19;;;;;;;;;;;;;;;10.80;100.00;100018.09;4957901;28;19918;-91
2022/09/19 16:14:46;;;;;;;;;;;;;;;10.83;100.00;100022.41;4979516;28;19933;-91
2022/09/19 16:17:21;;;;;;;;;;;;;;;10.83;100.00;100023.28;4988406;28;19918;-89
2022/09/19 16:19:49;;;;;;;;;;;;;;;10.70;100.00;100025.53;4973481;28;19918;-90
2022/09/19 16:22:18;;;;;;;;;;;;;;;10.65;100.00;100027.50;4972430;28;20305;-90
2022/09/19 16:24:50;;;;;;;;;;;;;;;10.61;100.00;100017.09;4973426;28;19918;-88
2022/09/19 16:27:26;;;;;;;;;;;;;;;10.69;100.00;100026.47;4969589;28;19926;-89
2022/09/19 16:30:00;;;;;;;;;;;;;;;10.72;100.00;100026.38;4971432;28;20366;-92
2022/09/19 16:32:26;;;;;;;;;;;;;;;10.76;100.00;100020.94;4972085;28;19961;-90
2022/09/19 16:34:57;;;;;;;;;;;;;;;10.79;100.00;100023.47;4973414;28;20009;-90
2022/09/19 16:37:33;;;;;;;;;;;;;;;10.70;100.00;100025.53;4974045;28;19918;-92
2022/09/19 16:39:59;;;;;;;;;;;;;;;10.79;100.00;100026.13;4973771;28;19918;-90
2022/09/19 16:42:31;;;;;;;;;;;;;;;10.83;100.00;100033.91;4972131;28;19930;-87
2022/09/19 16:45:01;;;;;;;;;;;;;;;10.70;100.00;100041.44;4967000;28;19926;-87
2022/09/19 16:47:27;;;;;;;;;;;;;;;10.62;100.00;100048.81;4972884;28;19926;-90
2022/09/19 16:49:53;;;;;;;;;;;;;;;10.69;100.00;100046.78;4972370;28;19922;-87
2022/09/19 16:52:21;;;;;;;;;;;;;;;10.66;100.00;100036.34;4973054;28;19925;-92
2022/09/19 16:54:47;;;;;;;;;;;;;;;10.72;100.00;100046.69;4972713;28;19949;-90
2022/09/19 16:57:21;;;;;;;;;;;;;;;10.68;100.00;100050.38;4988721;28;20007;-94
2022/09/19 16:59:51;;;;;;;;;;;;;;;10.77;100.00;100054.44;4986865;28;19973;-91
2022/09/19 17:02:23;;;;;;;;;;;;;;;10.69;100.00;100057.41;4972733;28;19918;-91
2022/09/19 17:04:52;;;;;;;;;;;;;;;10.72;100.00;100059.94;4973062;28;19919;-86
2022/09/19 17:07:19;;;;;;;;;;;;;;;10.71;100.00;100067.03;4972218;28;19914;-92
2022/09/19 17:09:45;;;;;;;;;;;;;;;10.82;100.00;100071.91;4968956;28;19926;-88
2022/09/19 17:12:13;;;;;;;;;;;;;;;10.71;100.00;100071.47;4970330;28;19918;-91
2022/09/19 17:14:38;;;;;;;;;;;;;;;10.68;100.00;100074.25;4972695;28;20029;-87
2022/09/19 17:17:03;;;;;;;;;;;;;;;10.79;100.00;100079.13;4972302;28;20001;-88
2022/09/19 17:19:31;;;;;;;;;;;;;;;10.75;100.00;100074.88;4972882;28;19928;-90
2022/09/19 17:22:08;;;;;;;;;;;;;;;;;;;;;
2022/09/19 17:24:36;;;;;;;;;;;;;;;10.66;100.00;100076.94;4973250;28;19929;-90
2022/09/19 17:27:06;;;;;;;;;;;;;;;10.82;100.00;100079.88;4970688;28;19980;-87
2022/09/19 17:29:32;;;;;;;;;;;;;;;10.81;100.00;100090.53;4968320;28;19926;-90
2022/09/19 17:32:00;;;;;;;;;;;;;;;11.05;100.00;100086.91;4972629;28;19976;-90
2022/09/19 17:34:25;;;;;;;;;;;;;;;11.07;100.00;100086.84;4985597;28;20005;-86
2022/09/19 17:36:50;;;;;;;;;;;;;;;10.90;100.00;100087.53;4970759;28;20338;-87
2022/09/19 17:39:16;;;;;;;;;;;;;;;10.92;100.00;100092.78;4970792;28;20380;-87
2022/09/19 17:41:41;;;;;;;;;;;;;;;10.89;100.00;100097.25;4972523;28;19926;-86
2022/09/19 17:44:08;;;;;;;;;;;;;;;10.90;100.00;100084.88;4971445;28;19922;-92
2022/09/19 17:46:34;;;;;;;;;;;;;;;10.82;100.00;100095.78;4970652;28;19925;-85
2022/09/19 17:48:59;;;;;;;;;;;;;;;10.80;100.00;100102.03;4970491;28;19922;-88
2022/09/19 17:51:24;;;;;;;;;;;;;;;10.75;100.00;100098.72;4971046;28;20452;-88
2022/09/19 17:53:50;;;;;;;;;;;;;;;10.64;100.00;100091.16;4972403;28;19929;-89
2022/09/19 17:56:17;;;;;;;;;;;;;;;10.53;100.00;100091.59;4971492;28;19944;-90
2022/09/19 17:58:48;;;;;;;;;;;;;;;10.32;100.00;100085.25;4971799;28;19918;-89
2022/09/19 18:03:57;;;;;;;;;;;;;;;10.00;100.00;100095.25;4972635;28;20024;-91
2022/09/19 18:06:22;;;;;;;;;;;;;;;9.87;100.00;100105.41;4971456;28;19988;-90
2022/09/19 18:08:47;;;;;;;;;;;;;;;9.54;100.00;100100.38;4973008;28;19928;-90
2022/09/19 18:11:13;;;;;;;;;;;;;;;9.23;100.00;100101.34;4971211;28;19953;-86
2022/09/19 18:13:39;;;;;;;;;;;;;;;9.05;100.00;100107.25;4973668;28;19922;-88
2022/09/19 18:16:05;;;;;;;;;;;;;;;8.96;100.00;100110.16;4974783;28;20331;-90
2022/09/19 18:18:31;;;;;;;;;;;;;;;8.93;100.00;100110.25;4974061;28;19922;-86
2022/09/19 18:20:57;;;;;;;;;;;;;;;8.82;100.00;100118.50;4973876;28;19926;-90
2022/09/19 18:23:22;;;;;;;;;;;;;;;8.50;100.00;100115.94;4980453;28;19930;-89
2022/09/19 18:25:47;;;;;;;;;;;;;;;8.29;100.00;100113.88;4974521;28;19929;-90
2022/09/19 18:28:12;;;;;;;;;;;;;;;8.06;100.00;100122.41;4975568;28;19945;-88
2022/09/19 18:30:39;;;;;;;;;;;;;;;7.97;100.00;100128.81;4976406;28;19922;-89
2022/09/19 18:33:04;;;;;;;;;;;;;;;7.95;100.00;100141.19;4976460;28;19926;-89
2022/09/19 18:35:30;;;;;;;;;;;;;;;7.97;100.00;100150.78;4976497;28;19989;-87
2022/09/19 18:37:55;;;;;;;;;;;;;;;8.16;100.00;100148.50;4976393;28;19965;-90
2022/09/19 18:40:20;;;;;;;;;;;;;;;8.30;100.00;100157.84;4976114;28;19925;-90
2022/09/19 18:42:45;;;;;;;;;;;;;;;8.39;100.00;100154.94;4973819;28;19922;-90
2022/09/19 18:45:11;;;;;;;;;;;;;;;8.42;100.00;100148.72;4976538;28;19925;-94
2022/09/19 18:47:38;;;;;;;;;;;;;;;8.39;100.00;100147.00;4975055;28;20373;-87
2022/09/19 18:50:04;;;;;;;;;;;;;;;8.44;100.00;100147.81;4976058;28;19918;-87
2022/09/19 18:52:29;;;;;;;;;;;;;;;8.44;100.00;100149.56;4974907;28;19922;-89
2022/09/19 18:54:55;;;;;;;;;;;;;;;8.46;100.00;100148.59;4974916;28;19918;-91
2022/09/19 18:57:20;;;;;;;;;;;;;;;8.49;100.00;100148.53;4975341;28;19925;-88
2022/09/19 18:59:46;;;;;;;;;;;;;;;8.50;100.00;100150.28;4974599;28;19922;-87
2022/09/19 19:02:11;;;;;;;;;;;;;;;8.46;100.00;100153.03;4974778;28;19918;-85
2022/09/19 19:04:36;;;;;;;;;;;;;;;8.41;100.00;100155.78;4974761;28;20030;-90
2022/09/19 19:07:02;;;;;;;;;;;;;;;8.43;100.00;100148.69;4975860;28;20280;-85
2022/09/19 19:09:27;;;;;;;;;;;;;;;8.49;100.00;100139.75;4974554;28;19922;-86
2022/09/19 19:11:53;;;;;;;;;;;;;;;8.52;100.00;100143.16;4975741;28;19941;-88
2022/09/19 19:14:18;;;;;;;;;;;;;;;8.46;100.00;100129.28;4973201;28;19922;-87
2022/09/19 19:16:43;;;;;;;;;;;;;;;8.38;100.00;100124.16;4970760;28;19922;-90
2022/09/19 19:19:09;;;;;;;;;;;;;;;8.44;100.00;100129.31;4974603;28;19954;-89
2022/09/19 19:21:36;;;;;;;;;;;;;;;8.44;100.00;100134.59;4975579;28;20296;-86
2022/09/19 19:24:02;;;;;;;;;;;;;;;8.49;100.00;100132.69;4974858;28;20001;-83
2022/09/19 19:26:28;;;;;;;;;;;;;;;8.56;100.00;100140.44;4990012;28;19973;-91
2022/09/19 19:28:53;;;;;;;;;;;;;;;8.57;100.00;100150.94;4969572;28;19922;-87
2022/09/19 19:31:19;;;;;;;;;;;;;;;8.64;100.00;100146.34;4973233;28;20373;-88
2022/09/19 19:33:46;;;;;;;;;;;;;;;8.75;100.00;100146.91;4972954;28;19926;-90
2022/09/19 19:36:13;;;;;;;;;;;;;;;8.80;100.00;100146.78;4971637;28;19922;-91
2022/09/19 19:38:40;;;;;;;;;;;;;;;8.82;100.00;100147.56;4989018;28;19922;-87
2022/09/19 19:41:06;;;;;;;;;;;;;;;8.93;100.00;100155.19;4972798;28;20451;-88
2022/09/19 19:43:32;;;;;;;;;;;;;;;8.95;100.00;100150.72;4972106;28;20262;-88
2022/09/19 19:46:01;;;;;;;;;;;;;;;8.97;100.00;100155.06;4972899;28;19922;-85
2022/09/19 19:48:34;;;;;;;;;;;;;;;9.03;100.00;100159.28;4975300;28;19926;-87
2022/09/19 19:51:00;;;;;;;;;;;;;;;9.09;100.00;100167.03;4973224;28;19928;-90
2022/09/19 19:53:25;;;;;;;;;;;;;;;9.12;100.00;100168.72;4972568;28;20364;-88
2022/09/19 19:55:54;;;;;;;;;;;;;;;9.18;100.00;100166.75;4974333;28;20409;-87
2022/09/19 19:58:19;;;;;;;;;;;;;;;9.25;100.00;100168.28;4989575;28;19917;-86
2022/09/19 20:00:45;;;;;;;;;;;;;;;9.30;100.00;100169.91;4973710;28;19977;-87
2022/09/19 20:03:11;;;;;;;;;;;;;;;9.34;100.00;100169.78;4972852;28;20305;-89
2022/09/19 20:05:36;;;;;;;;;;;;;;;9.34;100.00;100163.63;4973064;28;19922;-92
2022/09/19 20:08:01;;;;;;;;;;;;;;;9.37;100.00;100163.53;4972728;28;20373;-87
2022/09/19 20:10:27;;;;;;;;;;;;;;;9.41;100.00;100159.84;4971564;28;19922;-87
2022/09/19 20:12:52;;;;;;;;;;;;;;;9.44;100.00;100168.56;4971867;28;20817;-86
2022/09/19 20:15:17;;;;;;;;;;;;;;;9.49;100.00;100159.63;4972877;28;20385;-87
2022/09/19 20:17:43;;;;;;;;;;;;;;;9.56;100.00;100161.16;4974194;28;19922;-90
2022/09/19 20:20:08;;;;;;;;;;;;;;;9.60;100.00;100165.41;4970690;28;20004;-86
2022/09/19 20:22:34;;;;;;;;;;;;;;;9.64;100.00;100161.75;4973844;28;20358;-90
2022/09/19 20:24:59;;;;;;;;;;;;;;;9.71;100.00;100165.06;4973189;28;20305;-91
2022/09/19 20:27:25;;;;;;;;;;;;;;;9.70;100.00;100169.50;4971634;28;19930;-90
2022/09/19 20:29:50;;;;;;;;;;;;;;;9.71;100.00;100173.00;4971014;28;19929;-85
2022/09/19 20:32:16;;;;;;;;;;;;;;;9.76;100.00;100171.91;4973869;28;19933;-88